Time;durP1;ratioP1;P1;durP2;ratioP2;P2;SDS_P1;SDS_P2;PMS_P1;PMS_P2;Temp;Humidity;BMP_temperature;BMP_pressure;BME280_temperature;BME280_humidity;BME280_pressure;Samples;Min_cycle;Max_cycle;Signal;HPM_P1;HPM_P2
2023/05/23 00:00:57;;;;;;;46.17;26.35;;;13.70;99.90;;;;;;5081674;28;20051;-66
2023/05/23 00:03:23;;;;;;;41.80;24.05;;;13.70;99.90;;;;;;5082024;28;20516;-65
2023/05/23 00:05:50;;;;;;;42.10;23.92;;;13.80;99.90;;;;;;5065045;28;20123;-65
2023/05/23 00:08:16;;;;;;;44.40;23.90;;;13.80;99.90;;;;;;5115910;27;20165;-65
2023/05/23 00:10:42;;;;;;;41.30;21.63;;;13.80;99.90;;;;;;5115078;27;20043;-65
2023/05/23 00:13:08;;;;;;;45.22;23.23;;;13.70;99.90;;;;;;5065403;28;20513;-66
2023/05/23 00:15:40;;;;;;;38.83;19.45;;;13.70;99.90;;;;;;5093245;28;20032;-66
2023/05/23 00:18:07;;;;;;;35.17;17.17;;;13.70;99.90;;;;;;5068283;28;20092;-66
2023/05/23 00:20:35;;;;;;;35.13;15.93;;;13.80;99.90;;;;;;5082867;28;20058;-65
2023/05/23 00:23:02;;;;;;;33.30;15.23;;;13.80;99.90;;;;;;5113896;27;20111;-65
2023/05/23 00:25:32;;;;;;;27.00;14.05;;;13.80;99.90;;;;;;5054982;28;20455;-65
2023/05/23 00:27:59;;;;;;;32.55;15.10;;;13.90;99.90;;;;;;5067717;28;20044;-65
2023/05/23 00:30:26;;;;;;;36.35;16.73;;;13.90;99.90;;;;;;5048098;28;20102;-66
2023/05/23 00:32:53;;;;;;;29.27;15.43;;;13.90;99.90;;;;;;5050698;28;20071;-65
2023/05/23 00:35:22;;;;;;;29.55;15.23;;;13.90;99.90;;;;;;5068711;28;20043;-65
2023/05/23 00:37:51;;;;;;;33.28;16.13;;;14.00;99.90;;;;;;5045963;28;20075;-65
2023/05/23 00:40:20;;;;;;;26.92;15.30;;;14.00;99.90;;;;;;5066692;28;20631;-65
2023/05/23 00:42:47;;;;;;;30.17;17.90;;;13.90;99.90;;;;;;5062455;28;20191;-65
2023/05/23 00:45:13;;;;;;;31.17;17.30;;;13.90;99.90;;;;;;5099931;27;20440;-65
2023/05/23 00:47:39;;;;;;;31.63;18.25;;;13.90;99.90;;;;;;5069442;28;20040;-65
2023/05/23 00:50:08;;;;;;;36.08;20.48;;;13.80;99.90;;;;;;5067621;28;20070;-65
2023/05/23 00:52:34;;;;;;;36.60;19.70;;;13.80;99.90;;;;;;5050813;28;20078;-65
2023/05/23 00:55:00;;;;;;;35.38;18.38;;;13.80;99.90;;;;;;5079711;28;20059;-65
2023/05/23 00:57:27;;;;;;;37.30;18.98;;;13.80;99.90;;;;;;5065756;28;20421;-64
2023/05/23 00:59:52;;;;;;;31.40;16.40;;;13.80;99.90;;;;;;5101446;27;20486;-65
2023/05/23 01:02:20;;;;;;;30.73;16.35;;;13.80;99.90;;;;;;5050019;28;20709;-65
2023/05/23 01:04:53;;;;;;;25.80;14.75;;;13.70;99.90;;;;;;5050649;28;20070;-64
2023/05/23 01:07:22;;;;;;;23.40;13.88;;;13.80;99.90;;;;;;5066504;28;20047;-65
2023/05/23 01:09:48;;;;;;;28.25;14.35;;;13.60;99.90;;;;;;5067309;28;20119;-64
2023/05/23 01:12:23;;;;;;;27.20;13.10;;;13.70;99.90;;;;;;5066793;28;20602;-64
2023/05/23 01:15:09;;;;;;;25.48;12.85;;;13.70;99.90;;;;;;5066703;28;20384;-65
2023/05/23 01:17:41;;;;;;;24.35;12.20;;;13.70;99.90;;;;;;5067238;28;20048;-65
2023/05/23 01:20:11;;;;;;;22.42;12.82;;;13.70;99.90;;;;;;5047950;28;20536;-65
2023/05/23 01:22:59;;;;;;;26.92;13.35;;;13.70;99.90;;;;;;5049516;28;20581;-64
2023/05/23 01:25:58;;;;;;;22.20;12.40;;;13.60;99.90;;;;;;5099835;27;20052;-65
2023/05/23 01:28:29;;;;;;;22.02;10.90;;;13.60;99.90;;;;;;5067381;28;20043;-65
2023/05/23 01:30:57;;;;;;;22.85;11.00;;;13.50;99.90;;;;;;5066455;28;20048;-65
2023/05/23 01:33:24;;;;;;;19.80;10.18;;;13.50;99.90;;;;;;5099990;27;20367;-65
2023/05/23 01:35:50;;;;;;;18.73;10.32;;;13.50;99.90;;;;;;5068612;28;20046;-64
2023/05/23 01:38:16;;;;;;;16.65;9.77;;;13.50;99.90;;;;;;5049390;28;20086;-65
2023/05/23 01:40:42;;;;;;;18.70;8.77;;;13.50;99.90;;;;;;5048867;28;20048;-65
2023/05/23 01:43:08;;;;;;;20.02;9.02;;;13.40;99.90;;;;;;5068463;28;20240;-64
2023/05/23 01:45:34;;;;;;;19.38;9.18;;;13.40;99.90;;;;;;5068249;28;20032;-65
2023/05/23 01:48:01;;;;;;;16.27;8.50;;;13.40;99.90;;;;;;5066923;28;20374;-64
2023/05/23 01:50:27;;;;;;;20.85;8.90;;;13.40;99.90;;;;;;5100104;27;20144;-65
2023/05/23 01:52:55;;;;;;;21.75;8.45;;;13.40;99.90;;;;;;5065139;28;20179;-66
2023/05/23 01:55:23;;;;;;;21.55;7.82;;;13.40;99.90;;;;;;5068336;28;20358;-64
2023/05/23 01:57:50;;;;;;;20.02;8.07;;;13.30;99.90;;;;;;5066148;28;20043;-64
2023/05/23 02:00:17;;;;;;;18.10;8.45;;;13.40;99.90;;;;;;5098354;28;20036;-65
2023/05/23 02:02:43;;;;;;;17.60;7.90;;;13.30;99.90;;;;;;5065709;28;20310;-64
2023/05/23 02:05:10;;;;;;;18.80;7.50;;;13.30;99.90;;;;;;5048873;28;20032;-64
2023/05/23 02:07:36;;;;;;;17.27;7.82;;;13.40;99.90;;;;;;5065231;28;20070;-64
2023/05/23 02:10:02;;;;;;;16.08;6.78;;;13.40;99.90;;;;;;5070839;28;20115;-65
2023/05/23 02:12:28;;;;;;;19.00;6.95;;;13.30;99.90;;;;;;5071579;28;20406;-64
2023/05/23 02:14:54;;;;;;;15.18;7.05;;;13.20;99.90;;;;;;5071521;28;20038;-64
2023/05/23 02:17:21;;;;;;;23.27;7.55;;;13.20;99.90;;;;;;5071165;28;20644;-64
2023/05/23 02:19:47;;;;;;;19.38;7.18;;;13.20;99.90;;;;;;5104217;27;20508;-65
2023/05/23 02:22:13;;;;;;;20.67;8.27;;;13.10;99.90;;;;;;5069212;28;20165;-64
2023/05/23 02:24:40;;;;;;;22.23;8.02;;;13.20;99.90;;;;;;5070345;28;20032;-64
2023/05/23 02:27:05;;;;;;;18.13;8.25;;;13.20;99.90;;;;;;5069102;28;20098;-65
2023/05/23 02:29:32;;;;;;;17.67;6.70;;;13.10;99.90;;;;;;5072202;28;20040;-64
2023/05/23 02:31:57;;;;;;;19.65;7.30;;;13.10;99.90;;;;;;5069673;28;20044;-64
2023/05/23 02:34:23;;;;;;;24.02;8.55;;;13.10;99.90;;;;;;5069262;28;20117;-65
2023/05/23 02:36:50;;;;;;;26.88;9.15;;;13.10;99.90;;;;;;5069627;28;20047;-65
2023/05/23 02:39:16;;;;;;;28.10;9.27;;;13.00;99.90;;;;;;5051078;28;20091;-65
2023/05/23 02:41:42;;;;;;;24.48;8.60;;;13.00;99.90;;;;;;5071396;28;20347;-64
2023/05/23 02:44:08;;;;;;;22.77;8.50;;;13.00;99.90;;;;;;5070653;28;20055;-64
2023/05/23 02:46:33;;;;;;;23.50;7.85;;;13.00;99.90;;;;;;5069450;28;20529;-65
2023/05/23 02:48:59;;;;;;;15.98;7.47;;;12.70;99.90;;;;;;5068955;28;20067;-65
2023/05/23 02:51:25;;;;;;;21.73;7.18;;;12.70;99.90;;;;;;5070173;28;20411;-65
2023/05/23 02:53:50;;;;;;;19.27;7.45;;;12.70;99.90;;;;;;5070797;28;20039;-64
2023/05/23 02:56:17;;;;;;;30.17;7.78;;;12.80;99.90;;;;;;5070444;28;20221;-65
2023/05/23 02:58:43;;;;;;;22.38;8.18;;;12.60;99.90;;;;;;5070583;28;20238;-65
2023/05/23 03:01:09;;;;;;;19.77;8.43;;;12.50;99.90;;;;;;5069240;28;20089;-65
2023/05/23 03:03:35;;;;;;;25.30;8.63;;;12.50;99.90;;;;;;5067810;28;20252;-64
2023/05/23 03:06:05;;;;;;;23.77;8.13;;;12.50;99.90;;;;;;5069562;28;20151;-64
2023/05/23 03:08:30;;;;;;;24.73;7.85;;;12.40;99.90;;;;;;5068141;28;20040;-64
2023/05/23 03:10:56;;;;;;;22.63;6.72;;;12.40;99.90;;;;;;5036042;28;20445;-64
2023/05/23 03:13:22;;;;;;;19.55;6.63;;;12.30;99.90;;;;;;5069973;28;20481;-64
2023/05/23 03:15:47;;;;;;;21.95;7.07;;;12.30;99.90;;;;;;5071622;28;20686;-64
2023/05/23 03:18:13;;;;;;;17.10;5.82;;;12.30;99.90;;;;;;5067558;28;20464;-65
2023/05/23 03:20:39;;;;;;;14.75;5.82;;;12.30;99.90;;;;;;5067483;28;20132;-64
2023/05/23 03:23:04;;;;;;;17.08;6.45;;;12.30;99.90;;;;;;5070530;28;20036;-64
2023/05/23 03:25:30;;;;;;;26.27;7.10;;;12.30;99.90;;;;;;5069495;28;20564;-64
2023/05/23 03:27:57;;;;;;;20.52;6.55;;;12.30;99.90;;;;;;5067855;28;20043;-65
2023/05/23 03:30:22;;;;;;;19.73;6.78;;;12.30;99.90;;;;;;5068865;28;20208;-64
2023/05/23 03:32:48;;;;;;;24.13;6.95;;;12.20;99.90;;;;;;5045851;28;20040;-64
2023/05/23 03:35:14;;;;;;;25.05;7.55;;;12.30;99.90;;;;;;5051861;28;20047;-64
2023/05/23 03:37:40;;;;;;;21.13;6.63;;;12.40;99.90;;;;;;5067671;28;20195;-64
2023/05/23 03:40:07;;;;;;;19.50;6.38;;;12.30;85.40;;;;;;5051198;28;20071;-64
2023/05/23 03:42:32;;;;;;;24.10;6.68;;;12.30;16.20;;;;;;5101490;27;20044;-64
2023/05/23 03:44:58;;;;;;;24.40;6.45;;;12.40;1.00;;;;;;5064989;28;20130;-64
2023/05/23 03:47:24;;;;;;;21.10;5.97;;;12.40;1.00;;;;;;5100689;27;20655;-64
2023/05/23 03:49:50;;;;;;;22.05;6.57;;;12.40;1.00;;;;;;5052013;28;20438;-64
2023/05/23 03:52:16;;;;;;;19.25;6.32;;;12.40;1.00;;;;;;5070238;28;20048;-64
2023/05/23 03:54:41;;;;;;;27.38;7.20;;;12.50;1.00;;;;;;5066847;28;20501;-63
2023/05/23 03:57:07;;;;;;;22.25;6.57;;;12.50;1.00;;;;;;5070384;28;20056;-64
2023/05/23 03:59:33;;;;;;;21.83;5.32;;;12.50;1.00;;;;;;5102181;27;20083;-64
2023/05/23 04:02:00;;;;;;;22.65;6.13;;;12.50;1.00;;;;;;5069008;28;20350;-64
2023/05/23 04:04:29;;;;;;;21.77;6.07;;;12.50;99.90;;;;;;5068082;28;20086;-64
2023/05/23 04:06:55;;;;;;;22.52;6.30;;;12.50;1.00;;;;;;5049629;28;20032;-64
2023/05/23 04:09:21;;;;;;;21.20;5.78;;;12.60;1.00;;;;;;5063660;28;20147;-64
2023/05/23 04:11:47;;;;;;;18.83;5.68;;;12.50;99.90;;;;;;5069002;28;20040;-64
2023/05/23 04:14:13;;;;;;;23.33;6.35;;;12.50;1.00;;;;;;5066752;28;20050;-63
2023/05/23 04:16:41;;;;;;;17.77;5.63;;;12.60;1.00;;;;;;5068024;28;20130;-64
2023/05/23 04:19:07;;;;;;;23.52;5.72;;;12.40;1.00;;;;;;5053851;28;20140;-64
2023/05/23 04:21:33;;;;;;;16.70;4.47;;;12.30;1.00;;;;;;5067514;28;20052;-63
2023/05/23 04:24:00;;;;;;;15.95;4.05;;;12.40;1.00;;;;;;5083181;28;20235;-65
2023/05/23 04:26:25;;;;;;;17.88;4.07;;;12.30;1.00;;;;;;5067633;28;20080;-64
2023/05/23 04:28:53;;;;;;;16.75;3.92;;;12.30;1.00;;;;;;5066643;28;20144;-65
2023/05/23 04:31:19;;;;;;;20.98;4.22;;;12.40;1.00;;;;;;5066723;28;20113;-64
2023/05/23 04:33:45;;;;;;;15.73;3.33;;;12.30;99.90;;;;;;5098159;27;20063;-64
2023/05/23 04:36:10;;;;;;;21.85;4.18;;;12.30;99.90;;;;;;5065716;28;20132;-64
2023/05/23 04:38:37;;;;;;;17.13;3.33;;;12.40;99.90;;;;;;5050570;28;20039;-64
2023/05/23 04:41:05;;;;;;;14.73;2.53;;;12.40;99.90;;;;;;5068117;28;20405;-64
2023/05/23 04:43:32;;;;;;;17.75;2.95;;;12.40;99.90;;;;;;5099044;27;20085;-64
2023/05/23 04:45:58;;;;;;;20.58;3.60;;;12.40;99.90;;;;;;5049269;28;20557;-65
2023/05/23 04:48:26;;;;;;;13.70;2.88;;;12.30;99.90;;;;;;5050174;28;20044;-64
2023/05/23 04:50:52;;;;;;;16.98;3.38;;;12.40;99.90;;;;;;5067195;28;20387;-63
2023/05/23 04:53:18;;;;;;;27.20;3.90;;;12.40;99.90;;;;;;5099492;27;20105;-64
2023/05/23 04:55:43;;;;;;;23.00;3.75;;;12.40;99.90;;;;;;5066620;28;20036;-64
2023/05/23 04:58:09;;;;;;;17.23;3.20;;;12.30;99.90;;;;;;5100353;27;20074;-64
2023/05/23 05:00:35;;;;;;;14.50;3.08;;;12.30;99.90;;;;;;5066523;28;20795;-65
2023/05/23 05:03:00;;;;;;;18.35;3.40;;;12.30;99.90;;;;;;5066254;28;20075;-64
2023/05/23 05:05:26;;;;;;;13.27;3.20;;;12.40;99.90;;;;;;5100112;27;20466;-64
2023/05/23 05:07:52;;;;;;;15.48;3.08;;;12.40;99.90;;;;;;5066517;28;20038;-64
2023/05/23 05:10:18;;;;;;;18.60;3.28;;;12.20;99.90;;;;;;5067189;28;20040;-64
2023/05/23 05:12:48;;;;;;;16.88;3.00;;;12.20;99.90;;;;;;5048631;28;20384;-64
2023/05/23 05:15:16;;;;;;;22.15;4.22;;;12.20;99.90;;;;;;5066778;28;20078;-64
2023/05/23 05:17:42;;;;;;;24.33;5.13;;;12.20;99.90;;;;;;5100106;27;20190;-65
2023/05/23 05:20:09;;;;;;;25.25;5.80;;;12.10;99.90;;;;;;5098430;27;20504;-66
2023/05/23 05:22:42;;;;;;;23.05;6.32;;;12.00;99.90;;;;;;5067535;28;20102;-67
2023/05/23 05:25:09;;;;;;;24.02;5.72;;;12.00;99.90;;;;;;5080581;28;20173;-66
2023/05/23 05:27:36;;;;;;;25.95;6.15;;;11.90;99.90;;;;;;5066477;28;20040;-66
2023/05/23 05:30:07;;;;;;;24.85;6.40;;;11.90;1.00;;;;;;5065636;28;20559;-66
2023/05/23 05:32:33;;;;;;;21.08;6.03;;;11.80;1.00;;;;;;5066993;28;20035;-66
2023/05/23 05:35:00;;;;;;;19.55;5.60;;;11.80;1.00;;;;;;5066567;28;20457;-66
2023/05/23 05:37:26;;;;;;;22.58;6.70;;;11.70;99.90;;;;;;5066581;28;20066;-66
2023/05/23 05:39:53;;;;;;;24.42;6.75;;;11.60;99.90;;;;;;5050020;28;20048;-66
2023/05/23 05:42:22;;;;;;;19.20;5.13;;;11.50;99.90;;;;;;5064857;28;20110;-66
2023/05/23 05:44:48;;;;;;;20.63;5.60;;;11.50;99.90;;;;;;5065901;28;20229;-66
2023/05/23 05:47:15;;;;;;;20.75;5.03;;;11.50;99.90;;;;;;5066637;28;20036;-66
2023/05/23 05:49:40;;;;;;;20.05;5.25;;;11.50;99.90;;;;;;5067354;28;20491;-66
2023/05/23 05:52:07;;;;;;;18.35;4.50;;;11.60;99.90;;;;;;5031680;28;20093;-66
2023/05/23 05:54:33;;;;;;;15.43;4.85;;;11.60;99.90;;;;;;5099839;27;20035;-66
2023/05/23 05:56:59;;;;;;;17.45;5.07;;;11.60;99.90;;;;;;5066003;28;20177;-67
2023/05/23 05:59:24;;;;;;;17.60;5.45;;;11.60;99.90;;;;;;5065597;28;20145;-66
2023/05/23 06:01:51;;;;;;;17.40;5.05;;;11.60;99.90;;;;;;5066690;28;20032;-67
2023/05/23 06:04:17;;;;;;;20.42;4.63;;;11.50;99.90;;;;;;5099690;28;20040;-66
2023/05/23 06:06:43;;;;;;;13.10;3.20;;;11.50;99.90;;;;;;5064423;28;20570;-66
2023/05/23 06:09:09;;;;;;;17.38;4.03;;;11.60;99.90;;;;;;5065761;28;20055;-67
2023/05/23 06:11:38;;;;;;;18.55;4.03;;;11.60;99.90;;;;;;5065432;28;20032;-66
2023/05/23 06:14:04;;;;;;;17.52;4.00;;;11.70;99.90;;;;;;5067721;28;20044;-66
2023/05/23 06:16:30;;;;;;;16.92;3.55;;;11.70;99.90;;;;;;5097787;28;20044;-67
2023/05/23 06:18:55;;;;;;;17.98;3.13;;;11.70;99.90;;;;;;5050141;28;20035;-66
2023/05/23 06:21:21;;;;;;;18.90;3.58;;;11.70;99.90;;;;;;5097923;28;20376;-67
2023/05/23 06:23:47;;;;;;;17.10;3.15;;;11.70;99.90;;;;;;5047048;28;20087;-66
2023/05/23 06:26:13;;;;;;;15.85;3.83;;;11.60;99.90;;;;;;5065312;28;20040;-66
2023/05/23 06:28:38;;;;;;;19.55;3.53;;;11.50;1.00;;;;;;5050496;28;20302;-66
2023/05/23 06:31:06;;;;;;;15.63;3.10;;;11.40;11.70;;;;;;5068560;28;20050;-67
2023/05/23 06:33:32;;;;;;;14.15;2.85;;;11.40;21.20;;;;;;5080902;28;20063;-66
2023/05/23 06:35:57;;;;;;;16.45;3.17;;;11.40;95.20;;;;;;5068931;28;20481;-66
2023/05/23 06:38:26;;;;;;;14.65;2.50;;;11.40;99.80;;;;;;5068716;28;20047;-66
2023/05/23 06:40:52;;;;;;;21.38;3.80;;;11.30;17.30;;;;;;5083054;28;20050;-66
2023/05/23 06:43:19;;;;;;;20.25;3.15;;;11.40;99.90;;;;;;5083579;28;20475;-66
2023/05/23 06:45:47;;;;;;;15.13;2.70;;;11.60;1.00;;;;;;5069416;28;20493;-66
2023/05/23 06:48:13;;;;;;;22.52;4.30;;;11.90;1.00;;;;;;5087102;28;20039;-66
2023/05/23 06:50:40;;;;;;;20.65;2.88;;;12.10;99.90;;;;;;5069638;28;20043;-66
2023/05/23 06:53:06;;;;;;;19.73;3.45;;;12.30;99.90;;;;;;5069652;28;20327;-66
2023/05/23 06:55:35;;;;;;;19.52;2.88;;;12.40;99.90;;;;;;5070499;28;20146;-66
2023/05/23 06:58:02;;;;;;;16.52;3.25;;;12.30;99.90;;;;;;5105869;27;20036;-66
2023/05/23 07:00:30;;;;;;;22.27;3.97;;;12.40;99.90;;;;;;5055063;28;20043;-66
2023/05/23 07:02:59;;;;;;;22.25;3.25;;;12.40;99.90;;;;;;5070793;28;20036;-66
2023/05/23 07:05:26;;;;;;;23.20;3.38;;;12.30;99.90;;;;;;5071265;28;20319;-67
2023/05/23 07:07:52;;;;;;;24.63;4.10;;;12.40;99.90;;;;;;5072156;28;20413;-66
2023/05/23 07:10:18;;;;;;;23.48;3.83;;;12.40;99.90;;;;;;5053680;28;20036;-66
2023/05/23 07:12:45;;;;;;;25.25;3.50;;;12.30;99.90;;;;;;5071878;28;20311;-66
2023/05/23 07:15:11;;;;;;;22.70;3.13;;;12.00;99.90;;;;;;5070889;28;20276;-66
2023/05/23 07:17:37;;;;;;;22.75;3.30;;;12.00;99.90;;;;;;5071499;28;20228;-66
2023/05/23 07:20:03;;;;;;;24.40;3.92;;;11.80;99.90;;;;;;5087878;27;20278;-66
2023/05/23 07:22:30;;;;;;;26.55;3.45;;;11.90;99.90;;;;;;5072047;28;20055;-66
2023/05/23 07:24:56;;;;;;;21.77;3.13;;;11.80;99.90;;;;;;5070921;28;20035;-66
2023/05/23 07:27:21;;;;;;;20.40;3.17;;;11.90;99.90;;;;;;5054647;28;20276;-67
2023/05/23 07:29:47;;;;;;;21.42;3.50;;;12.00;99.90;;;;;;5071750;28;20532;-66
2023/05/23 07:32:13;;;;;;;18.73;3.28;;;12.20;99.90;;;;;;5082268;28;20047;-65
2023/05/23 07:34:38;;;;;;;21.88;3.83;;;12.30;99.90;;;;;;5088627;28;20039;-65
2023/05/23 07:37:04;;;;;;;26.90;3.63;;;12.20;99.90;;;;;;5087802;28;20040;-65
2023/05/23 07:39:30;;;;;;;22.55;3.35;;;12.10;99.90;;;;;;5053970;28;20032;-65
2023/05/23 07:41:56;;;;;;;22.20;3.58;;;12.00;99.90;;;;;;5084501;28;20121;-65
2023/05/23 07:44:21;;;;;;;23.60;3.88;;;12.00;99.90;;;;;;5087363;28;20044;-65
2023/05/23 07:46:47;;;;;;;21.48;3.28;;;12.00;99.90;;;;;;5085727;28;20040;-65
2023/05/23 07:49:13;;;;;;;22.55;4.07;;;12.10;99.90;;;;;;5070499;28;20047;-66
2023/05/23 07:51:38;;;;;;;19.63;3.60;;;12.30;99.90;;;;;;5084628;28;20086;-65
2023/05/23 07:54:04;;;;;;;20.33;3.20;;;12.50;99.90;;;;;;5086724;28;20148;-66
2023/05/23 07:56:30;;;;;;;20.58;3.83;;;12.90;99.90;;;;;;5087799;28;20028;-65
2023/05/23 07:58:55;;;;;;;21.42;3.85;;;13.40;99.90;;;;;;5121478;27;20136;-65
2023/05/23 08:01:24;;;;;;;22.50;3.78;;;13.90;99.90;;;;;;5070086;28;20068;-65
2023/05/23 08:03:50;;;;;;;22.92;4.07;;;13.70;32.80;;;;;;5088149;28;20047;-65
2023/05/23 08:06:15;;;;;;;29.52;3.92;;;13.80;99.90;;;;;;5087072;28;20377;-66
2023/05/23 08:08:42;;;;;;;19.33;3.65;;;13.90;91.30;;;;;;5088587;28;20081;-65
2023/05/23 08:11:08;;;;;;;20.42;3.65;;;14.30;99.90;;;;;;5070740;28;20047;-65
2023/05/23 08:13:34;;;;;;;21.58;3.95;;;14.70;99.90;;;;;;5071209;28;20048;-65
2023/05/23 08:16:00;;;;;;;16.40;3.90;;;15.00;45.30;;;;;;5100865;28;20035;-65
2023/05/23 08:18:26;;;;;;;17.40;3.97;;;15.30;1.00;;;;;;5053574;28;20050;-65
2023/05/23 08:20:53;;;;;;;28.65;4.13;;;15.60;1.00;;;;;;5086807;28;20040;-67
2023/05/23 08:23:18;;;;;;;24.60;4.22;;;15.80;99.90;;;;;;5086338;28;20044;-65
2023/05/23 08:25:44;;;;;;;25.15;4.03;;;15.60;1.00;;;;;;5086953;28;20049;-67
2023/05/23 08:28:10;;;;;;;18.58;3.90;;;15.50;1.00;;;;;;5054142;28;20097;-66
2023/05/23 08:30:36;;;;;;;21.45;3.70;;;14.70;99.90;;;;;;5087331;28;20129;-66
2023/05/23 08:33:22;;;;;;;19.13;3.38;;;14.00;99.90;;;;;;5086738;28;20135;-65
2023/05/23 08:35:48;;;;;;;24.88;3.40;;;14.10;1.00;;;;;;5084757;28;20490;-65
2023/05/23 08:38:14;;;;;;;17.63;3.42;;;14.00;1.00;;;;;;5070240;28;20043;-66
2023/05/23 08:40:48;;;;;;;20.23;3.50;;;14.10;1.00;;;;;;5069580;28;20075;-65
2023/05/23 08:43:13;;;;;;;19.23;3.72;;;14.20;1.00;;;;;;5086631;28;20048;-65
2023/05/23 08:45:41;;;;;;;20.45;3.28;;;14.10;1.00;;;;;;5120441;27;20028;-66
2023/05/23 08:48:08;;;;;;;19.95;3.67;;;14.10;1.00;;;;;;5070376;28;20389;-65
2023/05/23 08:50:38;;;;;;;17.52;3.05;;;14.00;99.90;;;;;;5070494;28;20127;-66
2023/05/23 08:53:07;;;;;;;17.38;3.28;;;13.90;1.00;;;;;;5087857;28;20500;-65
2023/05/23 08:55:33;;;;;;;19.17;3.72;;;13.90;1.00;;;;;;5086723;28;20492;-65
2023/05/23 08:57:59;;;;;;;17.80;3.30;;;14.20;1.00;;;;;;5070523;28;20048;-65
2023/05/23 09:00:26;;;;;;;12.57;2.85;;;14.70;1.00;;;;;;5120349;27;20407;-66
2023/05/23 09:02:53;;;;;;;19.83;3.67;;;15.20;1.00;;;;;;5086804;28;20686;-66
2023/05/23 09:05:20;;;;;;;18.90;3.10;;;15.30;99.90;;;;;;5086597;28;20052;-65
2023/05/23 09:07:47;;;;;;;20.73;3.65;;;14.80;99.90;;;;;;5121016;27;20036;-65
2023/05/23 09:10:16;;;;;;;21.85;3.80;;;14.50;99.90;;;;;;5070208;28;20028;-67
2023/05/23 09:12:43;;;;;;;16.80;3.22;;;14.30;99.90;;;;;;5087626;28;20047;-65
2023/05/23 09:15:10;;;;;;;17.45;3.00;;;14.40;99.90;;;;;;5053285;28;20048;-66
2023/05/23 09:17:39;;;;;;;13.77;2.80;;;14.30;99.90;;;;;;5070173;28;20048;-66
2023/05/23 09:20:16;;;;;;;19.45;3.40;;;14.60;99.90;;;;;;5104484;27;20082;-67
2023/05/23 09:22:48;;;;;;;17.30;3.47;;;14.60;99.90;;;;;;5086527;28;20047;-65
2023/05/23 09:25:14;;;;;;;18.20;3.13;;;15.10;99.90;;;;;;5068844;28;20044;-66
2023/05/23 09:27:41;;;;;;;19.17;3.47;;;14.90;99.90;;;;;;5087021;28;20040;-66
2023/05/23 09:30:11;;;;;;;20.88;3.28;;;15.50;99.90;;;;;;5087425;28;20482;-65
2023/05/23 09:32:37;;;;;;;13.57;2.90;;;15.90;99.90;;;;;;5086683;28;20097;-66
2023/05/23 09:35:10;;;;;;;20.05;3.28;;;15.70;99.90;;;;;;5118830;27;20131;-66
2023/05/23 09:37:39;;;;;;;16.52;2.78;;;15.00;99.90;;;;;;5086637;28;20079;-66
2023/05/23 09:40:14;;;;;;;18.98;3.28;;;15.20;99.90;;;;;;5085507;28;20102;-66
2023/05/23 09:42:46;;;;;;;24.15;3.88;;;15.20;99.90;;;;;;5111412;27;20088;-66
2023/05/23 09:45:15;;;;;;;22.38;3.58;;;15.10;99.90;;;;;;5068623;28;20040;-66
2023/05/23 09:47:51;;;;;;;16.77;2.47;;;15.30;99.90;;;;;;5036848;28;20611;-66
2023/05/23 09:50:18;;;;;;;13.60;2.25;;;15.00;99.90;;;;;;5053514;28;20048;-66
2023/05/23 09:52:43;;;;;;;17.00;3.03;;;15.60;99.90;;;;;;5069602;28;20084;-67
2023/05/23 09:55:09;;;;;;;19.15;3.10;;;16.10;99.90;;;;;;5051092;28;20417;-66
2023/05/23 09:57:39;;;;;;;18.20;3.30;;;16.60;99.90;;;;;;5103670;27;20044;-66
2023/05/23 10:00:05;;;;;;;14.00;2.17;;;16.70;99.90;;;;;;5069603;28;20086;-66
2023/05/23 10:02:52;;;;;;;14.98;2.95;;;16.70;1.00;;;;;;5052974;28;20083;-66
2023/05/23 10:05:46;;;;;;;17.08;2.40;;;16.70;1.00;;;;;;5068892;28;20139;-66
2023/05/23 10:08:38;;;;;;;15.13;2.65;;;16.60;1.00;;;;;;5070502;28;20823;-66
2023/05/23 10:11:06;;;;;;;16.23;2.75;;;16.30;1.00;;;;;;5068982;28;20052;-66
2023/05/23 10:13:33;;;;;;;13.80;2.58;;;15.50;1.00;;;;;;5069252;28;20247;-66
2023/05/23 10:16:05;;;;;;;18.58;3.13;;;15.50;1.00;;;;;;5068834;28;20094;-66
2023/05/23 10:18:38;;;;;;;13.57;2.43;;;15.40;99.90;;;;;;5069225;28;20058;-66
2023/05/23 10:21:10;;;;;;;14.55;2.20;;;15.70;85.50;;;;;;5069347;28;20636;-66
2023/05/23 10:23:36;;;;;;;12.30;2.63;;;15.50;22.50;;;;;;5069364;28;20117;-66
2023/05/23 10:26:04;;;;;;;16.95;2.95;;;15.60;92.80;;;;;;5067586;28;20063;-66
2023/05/23 10:28:31;;;;;;;19.88;3.30;;;15.20;41.00;;;;;;5052335;28;20119;-66
2023/05/23 10:30:58;;;;;;;17.40;2.47;;;15.10;99.90;;;;;;5073158;28;20055;-65
2023/05/23 10:33:30;;;;;;;21.73;3.33;;;14.70;99.90;;;;;;5056536;28;20079;-66
2023/05/23 10:36:07;;;;;;;18.42;3.17;;;14.90;99.90;;;;;;5072351;28;20684;-67
2023/05/23 10:38:40;;;;;;;16.25;2.40;;;15.50;99.90;;;;;;5107672;27;20456;-66
2023/05/23 10:41:10;;;;;;;15.13;2.38;;;15.80;99.90;;;;;;5056323;28;20573;-66
2023/05/23 10:43:50;;;;;;;15.98;2.40;;;15.50;1.00;;;;;;5056363;28;20044;-66
2023/05/23 10:46:20;;;;;;;19.90;3.35;;;15.20;1.00;;;;;;5054265;28;20123;-66
2023/05/23 10:48:46;;;;;;;14.30;2.53;;;15.40;79.20;;;;;;5073788;28;20050;-66
2023/05/23 10:51:14;;;;;;;14.95;2.22;;;15.60;1.00;;;;;;5073606;28;20753;-66
2023/05/23 10:53:42;;;;;;;18.40;2.88;;;15.80;1.00;;;;;;5074322;28;20101;-66
2023/05/23 10:56:09;;;;;;;14.40;2.50;;;15.90;1.00;;;;;;5072472;28;20047;-65
2023/05/23 10:58:39;;;;;;;14.25;2.45;;;16.10;1.00;;;;;;5072480;28;20036;-67
2023/05/23 11:01:12;;;;;;;10.98;2.28;;;16.20;1.00;;;;;;5073512;28;20286;-66
2023/05/23 11:03:47;;;;;;;10.98;2.30;;;16.30;1.00;;;;;;5055903;28;20052;-66
2023/05/23 11:06:40;;;;;;;16.63;2.35;;;16.20;1.00;;;;;;5072472;28;20509;-66
2023/05/23 11:09:11;;;;;;;20.48;3.35;;;16.00;1.00;;;;;;5071906;28;20354;-66
2023/05/23 11:11:52;;;;;;;20.27;3.13;;;15.70;1.00;;;;;;5072731;28;20251;-66
2023/05/23 11:14:19;;;;;;;18.52;3.08;;;15.30;93.10;;;;;;5072458;28;20335;-66
2023/05/23 11:16:47;;;;;;;15.90;2.63;;;15.30;99.90;;;;;;5054889;28;20127;-67
2023/05/23 11:19:19;;;;;;;21.95;3.53;;;14.90;99.90;;;;;;5072486;28;20051;-66
2023/05/23 11:21:48;;;;;;;16.10;2.85;;;14.20;99.90;;;;;;5071698;28;20510;-66
2023/05/23 11:24:15;;;;;;;18.48;3.38;;;14.40;99.90;;;;;;5071420;28;20763;-66
2023/05/23 11:26:58;;;;;;;19.80;3.25;;;15.10;99.90;;;;;;5072718;28;20036;-66
2023/05/23 11:29:25;;;;;;;;;;;15.40;99.90;;;;;;5105663;27;20639;-66
2023/05/23 11:31:51;;;;;;;15.70;2.83;;;15.30;1.00;;;;;;5072148;28;20385;-67
2023/05/23 11:34:17;;;;;;;18.00;2.65;;;15.80;1.00;;;;;;5071835;28;20090;-66
2023/05/23 11:36:43;;;;;;;18.90;2.88;;;16.10;1.00;;;;;;5071994;28;20044;-66
2023/05/23 11:39:09;;;;;;;14.38;2.45;;;16.30;1.00;;;;;;5070967;28;20545;-65
2023/05/23 11:41:35;;;;;;;13.20;2.20;;;16.20;99.90;;;;;;5087813;27;20085;-66
2023/05/23 11:44:01;;;;;;;15.02;2.88;;;15.70;99.90;;;;;;5072186;28;20044;-66
2023/05/23 11:46:27;;;;;;;16.85;2.50;;;15.90;99.90;;;;;;5071104;28;20073;-67
2023/05/23 11:48:52;;;;;;;16.65;2.40;;;15.90;99.90;;;;;;5070666;28;20676;-67
2023/05/23 11:51:21;;;;;;;15.82;2.70;;;15.60;1.00;;;;;;5071542;28;20048;-66
2023/05/23 11:53:47;;;;;;;16.27;2.65;;;16.00;1.00;;;;;;5071458;28;20048;-66
2023/05/23 11:56:15;;;;;;;16.55;2.22;;;16.00;1.00;;;;;;5072066;28;20055;-66
2023/05/23 11:58:41;;;;;;;17.38;3.00;;;15.60;99.90;;;;;;5072331;28;20052;-66
2023/05/23 12:01:08;;;;;;;15.30;2.45;;;16.00;1.00;;;;;;5104968;27;20061;-65
2023/05/23 12:03:45;;;;;;;13.75;2.38;;;16.10;99.90;;;;;;5054721;28;20240;-66
2023/05/23 12:06:14;;;;;;;13.20;2.40;;;16.20;99.90;;;;;;5071747;28;20048;-66
2023/05/23 12:08:40;;;;;;;17.75;2.85;;;16.60;99.90;;;;;;5071175;28;20036;-66
2023/05/23 12:11:06;;;;;;;11.93;2.00;;;16.20;99.90;;;;;;5054348;28;20101;-66
2023/05/23 12:13:32;;;;;;;9.80;1.92;;;16.50;99.90;;;;;;5070991;28;20052;-66
2023/05/23 12:16:01;;;;;;;10.35;1.52;;;16.00;99.90;;;;;;5069436;28;20154;-67
2023/05/23 12:18:29;;;;;;;12.30;1.73;;;16.10;99.90;;;;;;5105450;27;20782;-66
2023/05/23 12:21:00;;;;;;;13.65;1.90;;;15.60;99.90;;;;;;5054140;28;20090;-67
2023/05/23 12:23:27;;;;;;;15.27;2.47;;;15.50;99.90;;;;;;5071135;28;20457;-67
2023/05/23 12:25:53;;;;;;;16.08;2.10;;;15.20;99.90;;;;;;5054145;28;20519;-67
2023/05/23 12:28:20;;;;;;;13.98;2.45;;;15.50;99.90;;;;;;5071113;28;20044;-67
2023/05/23 12:30:47;;;;;;;13.70;2.33;;;15.80;99.90;;;;;;5052276;28;20044;-67
2023/05/23 12:33:13;;;;;;;18.98;2.80;;;16.00;99.90;;;;;;5070671;28;20047;-67
2023/05/23 12:35:45;;;;;;;16.85;2.65;;;16.00;99.90;;;;;;5070930;28;20855;-67
2023/05/23 12:38:16;;;;;;;19.52;2.75;;;16.20;99.90;;;;;;5105017;27;20048;-66
2023/05/23 12:40:42;;;;;;;14.98;2.67;;;15.80;99.90;;;;;;5036690;28;20060;-66